createdAt,value
2018-09-05T00:00:24.168Z,40.43
2018-09-05T00:02:54.527Z,46.90
2018-09-05T00:05:30.951Z,43.33
2018-09-05T00:08:05.788Z,39.57
2018-09-05T00:10:36.015Z,43.40
2018-09-05T00:13:07.256Z,41.40
2018-09-05T00:15:38.157Z,42.27
2018-09-05T00:18:08.339Z,46.97
2018-09-05T00:20:41.574Z,41.80
2018-09-05T00:23:13.202Z,44.43
2018-09-05T00:25:44.399Z,40.23
2018-09-05T00:28:18.124Z,49.17
2018-09-05T00:30:49.208Z,49.73
2018-09-05T00:33:27.182Z,42.57
2018-09-05T00:36:03.872Z,48.23
2018-09-05T00:38:44.382Z,47.20
2018-09-05T00:41:24.868Z,52.30
2018-09-05T00:43:56.139Z,42.97
2018-09-05T00:46:26.521Z,47.90
2018-09-05T00:49:06.451Z,46.10
2018-09-05T00:51:50.615Z,44.40
2018-09-05T00:54:19.988Z,46.70
2018-09-05T00:56:48.591Z,51.70
2018-09-05T00:59:17.141Z,50.00
2018-09-05T01:01:46.267Z,49.50
2018-09-05T01:04:18.989Z,60.10
2018-09-05T01:06:57.630Z,53.70
2018-09-05T01:09:36.398Z,48.37
2018-09-05T01:12:07.966Z,48.30
2018-09-05T01:14:41.282Z,56.10
2018-09-05T01:17:11.859Z,59.70
2018-09-05T01:20:04.650Z,57.57
2018-09-05T01:22:56.823Z,55.57
2018-09-05T01:25:32.030Z,60.50
2018-09-05T01:28:02.288Z,64.23
2018-09-05T01:30:40.281Z,57.20
2018-09-05T01:36:16.916Z,65.87
2018-09-05T01:38:47.684Z,58.73
2018-09-05T01:41:16.800Z,61.07
2018-09-05T01:43:45.726Z,64.97
2018-09-05T01:46:15.289Z,68.27
2018-09-05T01:48:43.814Z,71.50
2018-09-05T01:51:14.285Z,74.27
2018-09-05T01:53:45.181Z,63.20
2018-09-05T01:59:16.269Z,64.03
2018-09-05T02:01:51.834Z,71.03
2018-09-05T02:04:21.328Z,66.87
2018-09-05T02:07:02.319Z,80.57
2018-09-05T02:09:47.890Z,70.60
2018-09-05T02:12:27.181Z,68.37
2018-09-05T02:15:12.694Z,72.57
2018-09-05T02:17:49.059Z,75.23
2018-09-05T02:20:30.890Z,70.83
2018-09-05T02:23:09.185Z,70.73
2018-09-05T02:25:45.991Z,75.83
2018-09-05T02:28:15.389Z,71.30
2018-09-05T02:30:44.263Z,70.07
2018-09-05T02:33:20.629Z,70.03
2018-09-05T02:35:51.116Z,75.67
2018-09-05T02:38:38.208Z,69.60
2018-09-05T02:41:16.281Z,77.07
2018-09-05T02:44:00.761Z,78.27
2018-09-05T02:46:37.995Z,82.90
2018-09-05T02:49:23.286Z,80.47
2018-09-05T02:52:01.065Z,78.93
2018-09-05T02:54:41.037Z,78.70
2018-09-05T02:57:23.279Z,79.03
2018-09-05T02:59:57.057Z,77.80
2018-09-05T03:02:25.636Z,79.27
2018-09-05T03:04:56.318Z,76.73
2018-09-05T03:07:28.753Z,73.90
2018-09-05T03:12:38.236Z,80.50
2018-09-05T03:15:07.687Z,76.70
2018-09-05T03:17:37.448Z,83.50
2018-09-05T03:20:08.725Z,74.53
2018-09-05T03:22:37.262Z,78.27
2018-09-05T03:25:07.812Z,83.53
2018-09-05T03:27:40.825Z,76.27
2018-09-05T03:30:11.250Z,69.73
2018-09-05T03:32:52.277Z,75.13
2018-09-05T03:35:20.778Z,78.53
2018-09-05T03:37:49.317Z,74.60
2018-09-05T03:40:18.070Z,73.40
2018-09-05T03:42:46.581Z,77.93
2018-09-05T03:45:15.106Z,75.73
2018-09-05T03:47:44.025Z,72.87
2018-09-05T03:50:12.531Z,88.70
2018-09-05T03:52:41.049Z,87.40
2018-09-05T03:55:09.942Z,83.67
2018-09-05T03:57:38.444Z,81.20
2018-09-05T04:00:07.912Z,78.07
2018-09-05T04:02:36.445Z,79.57
2018-09-05T04:05:05.055Z,89.97
2018-09-05T04:07:33.613Z,80.67
2018-09-05T04:10:02.592Z,79.90
2018-09-05T04:12:31.161Z,77.23
2018-09-05T04:14:59.703Z,74.60
2018-09-05T04:17:31.436Z,83.60
2018-09-05T04:20:01.105Z,80.77
2018-09-05T04:22:30.630Z,80.67
2018-09-05T04:25:01.192Z,84.43
2018-09-05T04:27:31.708Z,76.47
2018-09-05T04:30:05.315Z,80.07
2018-09-05T04:32:49.053Z,80.70
2018-09-05T04:35:23.260Z,96.15
2018-09-05T04:37:51.812Z,83.27
2018-09-05T04:40:20.309Z,100.00
2018-09-05T04:42:49.018Z,86.17
2018-09-05T04:45:17.561Z,86.77
2018-09-05T04:47:46.069Z,78.57
2018-09-05T04:50:14.970Z,79.27
2018-09-05T04:52:43.571Z,81.27
2018-09-05T04:55:12.005Z,85.27
2018-09-05T04:57:41.032Z,92.50
2018-09-05T05:00:10.441Z,84.77
2018-09-05T05:02:50.568Z,84.57
2018-09-05T05:05:19.072Z,90.00
2018-09-05T05:07:47.636Z,82.47
2018-09-05T05:10:16.603Z,78.90
2018-09-05T05:12:45.125Z,85.43
2018-09-05T05:15:13.642Z,75.83
2018-09-05T05:17:42.143Z,81.50
2018-09-05T05:20:10.654Z,75.13
2018-09-05T05:22:39.183Z,78.93
2018-09-05T05:28:22.608Z,93.47
2018-09-05T05:31:07.138Z,84.60
2018-09-05T05:33:51.633Z,79.77
2018-09-05T05:36:22.703Z,77.17
2018-09-05T05:38:54.721Z,78.87
2018-09-05T05:41:23.633Z,85.50
2018-09-05T05:43:52.238Z,87.70
2018-09-05T05:46:20.780Z,73.77
2018-09-05T05:48:49.485Z,73.43
2018-09-05T05:51:17.981Z,72.23
2018-09-05T05:53:46.472Z,73.50
2018-09-05T05:56:15.107Z,66.00
2018-09-05T05:58:43.605Z,61.33
2018-09-05T06:01:12.159Z,69.00
2018-09-05T06:03:40.623Z,100.17
2018-09-05T06:06:09.196Z,102.17
2018-09-05T06:08:37.715Z,78.53
2018-09-05T06:11:06.272Z,74.70
2018-09-05T06:13:34.782Z,58.07
2018-09-05T06:16:03.377Z,53.77
2018-09-05T06:18:32.349Z,41.37
2018-09-05T06:21:00.938Z,38.50
2018-09-05T06:23:29.445Z,44.43
2018-09-05T06:25:58.425Z,44.50
2018-09-05T06:28:27.469Z,51.90
2018-09-05T06:31:12.045Z,44.23
2018-09-05T06:33:42.797Z,50.43
2018-09-05T06:36:25.001Z,47.97
2018-09-05T06:41:28.128Z,52.27
2018-09-05T06:43:57.028Z,48.93
2018-09-05T06:46:31.010Z,44.90
2018-09-05T06:49:02.400Z,46.93
2018-09-05T06:51:38.434Z,48.50
2018-09-05T06:54:09.295Z,44.07
2018-09-05T06:56:40.737Z,46.87
2018-09-05T06:59:09.510Z,49.13
2018-09-05T07:01:38.233Z,44.90
2018-09-05T07:04:07.901Z,39.80
2018-09-05T07:06:37.552Z,45.20
2018-09-05T07:09:08.860Z,41.67
2018-09-05T07:11:40.378Z,39.83
2018-09-05T07:14:10.559Z,40.93
2018-09-05T07:16:39.102Z,46.43
2018-09-05T07:19:13.698Z,38.53
2018-09-05T07:21:44.373Z,33.63
2018-09-05T07:24:13.769Z,38.83
2018-09-05T07:26:42.588Z,37.07
2018-09-05T07:29:11.145Z,38.47
2018-09-05T07:31:40.875Z,37.13
2018-09-05T07:34:09.543Z,30.87
2018-09-05T07:36:42.460Z,28.50
2018-09-05T07:39:12.085Z,30.43
2018-09-05T07:41:54.126Z,39.17
2018-09-05T07:47:10.634Z,33.20
2018-09-05T07:49:45.605Z,31.17
2018-09-05T07:52:27.718Z,29.60
2018-09-05T07:55:11.073Z,27.30
2018-09-05T07:57:46.729Z,29.27
2018-09-05T08:00:19.739Z,29.57
2018-09-05T08:02:48.616Z,30.23
2018-09-05T08:05:17.104Z,28.20
2018-09-05T08:07:45.827Z,30.87
2018-09-05T08:10:14.345Z,29.83
2018-09-05T08:12:43.393Z,33.63
2018-09-05T08:15:12.308Z,38.10
2018-09-05T08:17:40.869Z,33.70
2018-09-05T08:20:09.369Z,38.37
2018-09-05T08:22:38.142Z,33.87
2018-09-05T08:25:09.043Z,31.20
2018-09-05T08:27:44.885Z,34.13
2018-09-05T08:30:13.405Z,29.73
2018-09-05T08:32:42.289Z,25.50
2018-09-05T08:35:17.454Z,22.97
2018-09-05T08:37:49.767Z,16.73
2018-09-05T08:40:28.106Z,21.53
2018-09-05T08:42:59.193Z,20.83
2018-09-05T08:45:29.955Z,20.00
2018-09-05T08:50:48.756Z,15.07
2018-09-05T08:53:31.935Z,16.07
2018-09-05T08:56:26.911Z,14.60
2018-09-05T08:59:02.323Z,15.83
2018-09-05T09:01:39.565Z,13.23
2018-09-05T09:04:08.143Z,13.77
2018-09-05T09:06:43.694Z,11.20
2018-09-05T09:09:21.060Z,10.30
2018-09-05T09:11:55.973Z,9.27
2018-09-05T09:14:40.633Z,8.30
2018-09-05T09:17:20.711Z,9.07
2018-09-05T09:19:56.222Z,11.73
2018-09-05T09:22:34.629Z,11.10
2018-09-05T09:25:05.070Z,12.68
2018-09-05T09:27:41.870Z,14.33
2018-09-05T09:30:10.421Z,13.87
2018-09-05T09:32:39.006Z,12.17
2018-09-05T09:35:09.580Z,13.00
2018-09-05T09:37:38.126Z,14.73
2018-09-05T09:40:07.619Z,12.53
2018-09-05T09:42:37.124Z,13.00
2018-09-05T09:45:05.721Z,12.17
2018-09-05T09:47:34.294Z,13.07
2018-09-05T09:50:03.860Z,13.77
2018-09-05T09:52:36.626Z,11.57
2018-09-05T09:55:07.009Z,13.67
2018-09-05T09:57:37.905Z,11.03
2018-09-05T10:00:08.180Z,13.43
2018-09-05T10:02:42.135Z,15.17
2018-09-05T10:05:16.163Z,18.50
2018-09-05T10:07:49.934Z,16.63
2018-09-05T10:10:25.388Z,15.00
2018-09-05T10:13:00.115Z,15.23
2018-09-05T10:15:35.013Z,19.70
2018-09-05T10:18:40.200Z,18.37
2018-09-05T10:21:08.854Z,16.63
2018-09-05T10:23:37.381Z,18.70
2018-09-05T10:26:05.989Z,18.07
2018-09-05T10:28:34.638Z,19.93
2018-09-05T10:31:03.182Z,19.53
2018-09-05T10:33:31.724Z,19.97
2018-09-05T10:36:00.268Z,22.00
2018-09-05T10:38:28.825Z,17.83
2018-09-05T10:40:57.327Z,18.33
2018-09-05T10:43:25.906Z,20.10
2018-09-05T10:45:54.429Z,18.73
2018-09-05T10:48:23.081Z,22.17
2018-09-05T10:50:51.996Z,24.47
2018-09-05T10:53:20.580Z,20.33
2018-09-05T10:55:49.143Z,18.83
2018-09-05T10:58:18.359Z,20.10
2018-09-05T11:00:47.609Z,20.20
2018-09-05T11:03:16.189Z,22.23
2018-09-05T11:05:44.703Z,20.40
2018-09-05T11:08:13.237Z,22.87
2018-09-05T11:10:41.906Z,19.50
2018-09-05T11:13:10.409Z,18.33
2018-09-05T11:15:38.949Z,19.33
2018-09-05T11:18:08.023Z,17.87
2018-09-05T11:20:36.573Z,19.53
2018-09-05T11:23:05.225Z,19.77
2018-09-05T11:25:33.757Z,17.83
2018-09-05T11:28:02.308Z,20.63
2018-09-05T11:30:30.951Z,17.40
2018-09-05T11:32:59.528Z,16.43
2018-09-05T11:35:28.560Z,19.73
2018-09-05T11:37:57.106Z,19.57
2018-09-05T11:40:26.003Z,17.73
2018-09-05T11:42:55.234Z,17.07
2018-09-05T11:45:23.767Z,17.63
2018-09-05T11:47:52.288Z,17.37
2018-09-05T11:50:20.984Z,17.50
2018-09-05T11:52:49.552Z,20.90
2018-09-05T11:55:18.145Z,15.77
2018-09-05T11:57:46.676Z,17.63
2018-09-05T12:00:15.272Z,19.80
2018-09-05T12:02:43.789Z,16.60
2018-09-05T12:05:15.938Z,17.23
2018-09-05T12:07:45.270Z,15.13
2018-09-05T12:10:19.404Z,18.37
2018-09-05T12:12:49.028Z,17.33
2018-09-05T12:15:20.281Z,17.10
2018-09-05T12:17:48.857Z,19.70
2018-09-05T12:20:17.373Z,18.67
2018-09-05T12:22:45.940Z,18.27
2018-09-05T12:25:17.423Z,19.43
2018-09-05T12:27:47.911Z,20.30
2018-09-05T12:30:17.017Z,20.00
2018-09-05T12:32:45.545Z,20.90
2018-09-05T12:35:14.189Z,18.13
2018-09-05T12:37:43.519Z,19.43
2018-09-05T12:40:12.090Z,17.80
2018-09-05T12:42:40.633Z,17.37
2018-09-05T12:45:10.229Z,18.10
2018-09-05T12:47:41.849Z,19.07
2018-09-05T12:50:12.797Z,18.27
2018-09-05T12:52:41.677Z,17.77
2018-09-05T12:55:11.861Z,17.60
2018-09-05T12:57:42.228Z,16.43
2018-09-05T13:00:10.961Z,18.20
2018-09-05T13:02:39.539Z,18.50
2018-09-05T13:05:08.905Z,18.17
2018-09-05T13:07:37.348Z,21.60
2018-09-05T13:10:05.896Z,18.73
2018-09-05T13:12:34.700Z,19.37
2018-09-05T13:15:03.269Z,28.63
2018-09-05T13:17:31.905Z,23.10
2018-09-05T13:20:00.742Z,19.33
2018-09-05T13:22:29.785Z,19.23
2018-09-05T13:24:59.643Z,18.13
2018-09-05T13:27:28.353Z,17.93
2018-09-05T13:29:56.875Z,22.67
2018-09-05T13:32:25.681Z,22.53
2018-09-05T13:34:55.702Z,20.00
2018-09-05T13:37:25.018Z,21.07
2018-09-05T13:39:55.302Z,21.43
2018-09-05T13:42:23.846Z,21.17
2018-09-05T13:44:53.960Z,21.30
2018-09-05T13:47:22.521Z,26.93
2018-09-05T13:49:52.005Z,20.27
2018-09-05T13:52:21.001Z,20.90
2018-09-05T13:54:50.076Z,21.07
2018-09-05T13:57:20.060Z,23.90
2018-09-05T13:59:50.105Z,18.23
2018-09-05T14:02:21.080Z,18.60
2018-09-05T14:04:55.590Z,15.23
2018-09-05T14:07:25.762Z,13.63
2018-09-05T14:09:58.461Z,15.70
2018-09-05T14:12:30.369Z,14.93
2018-09-05T14:14:59.169Z,15.40
2018-09-05T14:17:27.687Z,12.63
2018-09-05T14:19:56.215Z,16.63
2018-09-05T14:22:24.784Z,14.30
2018-09-05T14:24:54.298Z,12.30
2018-09-05T14:27:22.909Z,12.07
2018-09-05T14:29:54.746Z,12.17
2018-09-05T14:32:33.689Z,15.40
2018-09-05T14:35:08.109Z,12.50
2018-09-05T14:37:44.555Z,15.47
2018-09-05T14:40:17.233Z,12.33
2018-09-05T14:42:53.056Z,11.57
2018-09-05T14:45:27.347Z,12.37
2018-09-05T14:47:59.922Z,12.10
2018-09-05T14:50:41.590Z,11.50
2018-09-05T14:53:18.616Z,15.87
2018-09-05T14:55:47.446Z,12.50
2018-09-05T14:58:17.526Z,16.53
2018-09-05T15:00:47.134Z,12.03
2018-09-05T15:03:18.437Z,11.30
2018-09-05T15:05:54.074Z,11.50
2018-09-05T15:08:29.710Z,9.23
2018-09-05T15:13:57.101Z,7.60
2018-09-05T15:16:34.186Z,10.30
2018-09-05T15:19:06.881Z,11.13
2018-09-05T15:21:35.753Z,10.53
2018-09-05T15:24:04.748Z,11.27
2018-09-05T15:26:34.181Z,8.47
2018-09-05T15:29:02.751Z,8.83
2018-09-05T15:31:31.336Z,9.93
2018-09-05T15:34:05.285Z,10.90
2018-09-05T15:36:33.813Z,14.18
2018-09-05T15:39:03.916Z,12.97
2018-09-05T15:41:37.953Z,15.53
2018-09-05T15:44:09.372Z,14.53
2018-09-05T15:46:48.048Z,14.10
2018-09-05T15:49:22.345Z,13.60
2018-09-05T15:52:04.472Z,14.23
2018-09-05T15:54:34.601Z,23.60
2018-09-05T15:57:03.936Z,14.07
2018-09-05T15:59:32.471Z,14.87
2018-09-05T16:02:01.922Z,15.90
2018-09-05T16:04:30.561Z,16.53
2018-09-05T16:07:04.737Z,19.27
2018-09-05T16:09:33.302Z,14.40
2018-09-05T16:12:01.847Z,13.97
2018-09-05T16:14:30.797Z,14.90
2018-09-05T16:16:59.388Z,14.20
2018-09-05T16:19:27.893Z,15.57
2018-09-05T16:21:56.455Z,21.47
2018-09-05T16:24:25.041Z,18.43
2018-09-05T16:26:53.626Z,18.60
2018-09-05T16:29:22.411Z,18.33
2018-09-05T16:31:50.949Z,20.87
2018-09-05T16:34:19.561Z,21.90
2018-09-05T16:36:50.289Z,18.17
2018-09-05T16:39:19.179Z,19.00
2018-09-05T16:41:48.535Z,21.80
2018-09-05T16:44:17.508Z,20.37
2018-09-05T16:46:46.964Z,18.70
2018-09-05T16:49:24.152Z,21.53
2018-09-05T16:51:58.234Z,20.27
2018-09-05T16:54:29.873Z,25.83
2018-09-05T16:57:05.161Z,20.03
2018-09-05T16:59:35.924Z,23.77
2018-09-05T17:02:10.456Z,26.27
2018-09-05T17:04:41.293Z,28.40
2018-09-05T17:07:11.713Z,26.60
2018-09-05T17:09:41.155Z,32.73
2018-09-05T17:12:09.733Z,24.57
2018-09-05T17:14:38.368Z,29.50
2018-09-05T17:17:09.128Z,29.77
2018-09-05T17:19:41.174Z,26.70
2018-09-05T17:22:17.037Z,29.70
2018-09-05T17:24:52.470Z,26.63
2018-09-05T17:27:26.109Z,32.10
2018-09-05T17:29:57.020Z,28.33
2018-09-05T17:32:26.367Z,27.93
2018-09-05T17:34:58.579Z,25.97
2018-09-05T17:37:30.008Z,26.10
2018-09-05T17:40:00.310Z,28.63
2018-09-05T17:45:08.833Z,29.20
2018-09-05T17:47:39.495Z,29.13
2018-09-05T17:50:14.043Z,25.30
2018-09-05T17:52:52.672Z,26.60
2018-09-05T17:55:22.780Z,29.00
2018-09-05T17:57:54.427Z,23.70
2018-09-05T18:00:23.023Z,28.47
2018-09-05T18:02:53.162Z,24.97
2018-09-05T18:05:21.688Z,25.13
2018-09-05T18:07:51.211Z,27.13
2018-09-05T18:10:20.450Z,28.40
2018-09-05T18:12:53.111Z,27.83
2018-09-05T18:15:23.002Z,29.43
2018-09-05T18:17:56.011Z,26.70
2018-09-05T18:20:25.603Z,31.75
2018-09-05T18:23:08.341Z,26.70
2018-09-05T18:25:48.411Z,27.47
2018-09-05T18:28:53.941Z,26.70
2018-09-05T18:31:40.046Z,33.90
2018-09-05T18:34:38.021Z,33.73
2018-09-05T18:37:10.445Z,27.37
2018-09-05T18:39:44.701Z,26.47
2018-09-05T18:42:13.610Z,29.03
2018-09-05T18:44:45.985Z,26.90
2018-09-05T18:47:17.983Z,29.47
2018-09-05T18:49:51.424Z,35.77
2018-09-05T18:52:21.358Z,29.77
2018-09-05T18:54:52.122Z,27.83
2018-09-05T18:57:22.633Z,27.10
2018-09-05T19:00:04.908Z,27.83
2018-09-05T19:02:38.985Z,27.90
2018-09-05T19:05:10.570Z,26.87
2018-09-05T19:07:44.365Z,28.00
2018-09-05T19:10:16.053Z,29.97
2018-09-05T19:12:50.149Z,34.23
2018-09-05T19:15:18.828Z,32.57
2018-09-05T19:17:47.361Z,30.47
2018-09-05T19:20:16.135Z,31.90
2018-09-05T19:22:44.715Z,33.33
2018-09-05T19:25:13.283Z,33.83
2018-09-05T19:27:41.897Z,32.70
2018-09-05T19:30:10.505Z,32.93
2018-09-05T19:32:39.043Z,36.03
2018-09-05T19:35:07.854Z,35.07
2018-09-05T19:37:38.238Z,33.37
2018-09-05T19:40:07.121Z,36.97
2018-09-05T19:42:36.434Z,29.00
2018-09-05T19:45:05.100Z,32.63
2018-09-05T19:47:35.034Z,31.33
2018-09-05T19:50:04.147Z,29.87
2018-09-05T19:52:37.852Z,32.17
2018-09-05T19:55:06.623Z,28.40
2018-09-05T19:57:35.166Z,27.17
2018-09-05T20:00:04.928Z,26.23
2018-09-05T20:02:38.668Z,27.43
2018-09-05T20:05:08.770Z,23.27
2018-09-05T20:07:38.301Z,22.83
2018-09-05T20:10:06.962Z,18.73
2018-09-05T20:12:35.819Z,22.13
2018-09-05T20:15:04.812Z,22.53
2018-09-05T20:17:33.348Z,19.80
2018-09-05T20:20:02.025Z,24.20
2018-09-05T20:22:30.557Z,18.87
2018-09-05T20:24:59.193Z,20.13
2018-09-05T20:27:27.800Z,16.70
2018-09-05T20:29:56.584Z,18.00
2018-09-05T20:32:25.420Z,17.37
2018-09-05T20:34:54.857Z,17.30
2018-09-05T20:37:23.932Z,18.73
2018-09-05T20:39:55.968Z,18.27
2018-09-05T20:42:26.599Z,15.00
2018-09-05T20:45:03.186Z,17.70
2018-09-05T20:47:36.866Z,16.00
2018-09-05T20:50:15.446Z,16.70
2018-09-05T20:52:52.160Z,18.73
2018-09-05T20:55:25.106Z,16.03
2018-09-05T20:57:53.724Z,18.43
2018-09-05T21:00:28.346Z,18.37
2018-09-05T21:02:58.798Z,18.53
2018-09-05T21:05:30.777Z,17.77
2018-09-05T21:08:02.569Z,16.77
2018-09-05T21:10:35.132Z,19.13
2018-09-05T21:13:05.333Z,22.70
2018-09-05T21:15:37.257Z,25.17
2018-09-05T21:18:07.509Z,22.50
2018-09-05T21:20:42.286Z,23.20
2018-09-05T21:23:13.359Z,26.80
2018-09-05T21:28:39.380Z,22.40
2018-09-05T21:31:12.297Z,21.60
2018-09-05T21:33:56.274Z,20.67
2018-09-05T21:36:31.797Z,22.37
2018-09-05T21:39:01.582Z,18.10
2018-09-05T21:41:31.650Z,19.07
2018-09-05T21:44:02.297Z,19.40
2018-09-05T21:46:39.752Z,19.57
2018-09-05T21:51:57.660Z,17.13
2018-09-05T21:54:36.091Z,21.10
2018-09-05T21:57:08.292Z,18.97
2018-09-05T21:59:43.863Z,19.47
2018-09-05T22:02:17.605Z,17.47
2018-09-05T22:05:02.459Z,18.50
2018-09-05T22:07:36.264Z,15.80
2018-09-05T22:10:11.511Z,16.83
2018-09-05T22:12:47.671Z,16.20
2018-09-05T22:15:30.654Z,19.00
2018-09-05T22:18:03.910Z,18.33
2018-09-05T22:20:40.253Z,17.47
2018-09-05T22:23:15.152Z,16.83
2018-09-05T22:25:45.247Z,14.13
2018-09-05T22:28:20.077Z,14.00
2018-09-05T22:30:52.405Z,16.27
2018-09-05T22:33:33.954Z,14.80
2018-09-05T22:36:12.673Z,19.63
2018-09-05T22:38:46.973Z,15.53
2018-09-05T22:41:16.292Z,20.92
2018-09-05T22:43:56.773Z,19.63
2018-09-05T22:46:37.497Z,15.57
2018-09-05T22:54:36.054Z,19.10
2018-09-05T22:57:29.101Z,21.03
2018-09-05T23:02:16.678Z,16.10
2018-09-05T23:04:56.908Z,21.80
2018-09-05T23:08:38.970Z,22.53
2018-09-05T23:11:23.632Z,22.03
2018-09-05T23:14:04.540Z,20.93
2018-09-05T23:21:09.488Z,27.87
2018-09-05T23:23:55.995Z,25.97
2018-09-05T23:26:33.449Z,26.37
2018-09-05T23:29:05.616Z,27.87
2018-09-05T23:31:36.373Z,32.37
2018-09-05T23:34:10.516Z,30.80
2018-09-05T23:36:39.397Z,34.70
2018-09-05T23:39:11.034Z,35.83
2018-09-05T23:41:40.016Z,37.60
2018-09-05T23:44:09.822Z,37.90
2018-09-05T23:46:39.976Z,33.50
2018-09-05T23:49:10.453Z,35.77
2018-09-05T23:51:39.188Z,40.63
2018-09-05T23:54:10.566Z,34.97
2018-09-05T23:56:39.133Z,39.73
2018-09-05T23:59:08.884Z,44.60
